Time;durP1;ratioP1;P1;durP2;ratioP2;P2;SDS_P1;SDS_P2;PMS_P1;PMS_P2;Temp;Humidity;BMP_temperature;BMP_pressure;BME280_temperature;BME280_humidity;BME280_pressure;Samples;Min_cycle;Max_cycle;Signal;HPM_P1;HPM_P2
2023/12/06 00:01:20;;;;;;;;;;;19.20;52.60;;;;;;5057489;28;19925;-62
2023/12/06 00:03:45;;;;;;;;;;;19.20;52.70;;;;;;5058478;28;19951;-62
2023/12/06 00:06:11;;;;;;;;;;;19.20;52.60;;;;;;5059205;28;20304;-62
2023/12/06 00:08:36;;;;;;;;;;;19.20;52.60;;;;;;5058583;28;20277;-62
2023/12/06 00:11:02;;;;;;;;;;;19.20;52.60;;;;;;5059175;28;19975;-62
2023/12/06 00:13:28;;;;;;;;;;;19.10;52.50;;;;;;5057948;28;19924;-62
2023/12/06 00:15:53;;;;;;;;;;;19.10;52.50;;;;;;5058123;28;19925;-62
2023/12/06 00:18:19;;;;;;;;;;;19.10;52.50;;;;;;5059643;28;19932;-63
2023/12/06 00:20:44;;;;;;;;;;;19.10;52.50;;;;;;5059911;28;20035;-63
2023/12/06 00:23:10;;;;;;;;;;;19.10;52.50;;;;;;5060302;28;19928;-62
2023/12/06 00:25:35;;;;;;;;;;;19.10;52.50;;;;;;5079525;28;19967;-62
2023/12/06 00:28:04;;;;;;;;;;;19.10;52.50;;;;;;5078074;28;20015;-62
2023/12/06 00:30:29;;;;;;;;;;;19.00;52.40;;;;;;5079303;28;19928;-62
2023/12/06 00:32:55;;;;;;;;;;;19.10;52.50;;;;;;5079083;28;19931;-62
2023/12/06 00:35:20;;;;;;;;;;;19.00;52.50;;;;;;5078473;28;19929;-62
2023/12/06 00:37:46;;;;;;;;;;;19.00;52.40;;;;;;5079150;28;19931;-62
2023/12/06 00:40:11;;;;;;;;;;;19.00;52.40;;;;;;5079048;28;19932;-62
2023/12/06 00:42:37;;;;;;;;;;;19.00;52.40;;;;;;5060583;28;19928;-62
2023/12/06 00:45:02;;;;;;;;;;;19.00;52.40;;;;;;5079033;28;20265;-62
2023/12/06 00:47:28;;;;;;;;;;;19.00;52.40;;;;;;5076203;28;19978;-62
2023/12/06 00:49:53;;;;;;;;;;;19.00;52.40;;;;;;5075066;28;19924;-62
2023/12/06 00:52:19;;;;;;;;;;;19.00;52.50;;;;;;5057843;28;20348;-62
2023/12/06 00:54:45;;;;;;;;;;;18.90;52.40;;;;;;5075738;28;19925;-62
2023/12/06 00:57:11;;;;;;;;;;;18.90;52.40;;;;;;5074614;28;19925;-62
2023/12/06 00:59:36;;;;;;;;;;;18.90;52.40;;;;;;5075670;28;19962;-62
2023/12/06 01:02:02;;;;;;;;;;;18.90;52.50;;;;;;5075345;28;19946;-62
2023/12/06 01:04:27;;;;;;;;;;;18.90;52.40;;;;;;5074795;28;20011;-62
2023/12/06 01:06:53;;;;;;;;;;;18.90;52.40;;;;;;5057597;28;20254;-62
2023/12/06 01:09:18;;;;;;;;;;;18.90;52.40;;;;;;5056735;28;19932;-62
2023/12/06 01:11:44;;;;;;;;;;;18.90;52.40;;;;;;5056994;28;20344;-62
2023/12/06 01:14:09;;;;;;;;;;;18.90;52.50;;;;;;5075044;28;19924;-62
2023/12/06 01:16:35;;;;;;;;;;;18.80;52.30;;;;;;5057238;28;19971;-63
2023/12/06 01:19:00;;;;;;;;;;;18.80;52.40;;;;;;5074611;28;19925;-62
2023/12/06 01:21:26;;;;;;;;;;;18.80;52.40;;;;;;5057716;28;19931;-62
2023/12/06 01:23:51;;;;;;;;;;;18.80;52.40;;;;;;5074222;28;19925;-62
2023/12/06 01:26:17;;;;;;;;;;;18.80;52.40;;;;;;5075249;28;19982;-62
2023/12/06 01:28:43;;;;;;;;;;;18.80;52.40;;;;;;5074671;28;19986;-62
2023/12/06 01:31:08;;;;;;;;;;;18.80;53.00;;;;;;5074085;28;19929;-62
2023/12/06 01:33:33;;;;;;;;;;;18.80;52.30;;;;;;5075281;28;19931;-61
2023/12/06 01:35:59;;;;;;;;;;;18.80;52.30;;;;;;5074737;28;19929;-62
2023/12/06 01:38:25;;;;;;;;;;;18.80;52.30;;;;;;5074180;28;20019;-62
2023/12/06 01:40:50;;;;;;;;;;;18.80;52.30;;;;;;5074880;28;19931;-62
2023/12/06 01:43:16;;;;;;;;;;;18.80;52.30;;;;;;5074746;28;19928;-62
2023/12/06 01:45:41;;;;;;;;;;;18.80;52.30;;;;;;5074353;28;19928;-62
2023/12/06 01:48:07;;;;;;;;;;;18.70;52.20;;;;;;5074581;28;19931;-62
2023/12/06 01:50:32;;;;;;;;;;;18.80;52.40;;;;;;5074711;28;20295;-62
2023/12/06 01:52:58;;;;;;;;;;;18.70;52.20;;;;;;5073274;28;19935;-62
2023/12/06 01:55:23;;;;;;;;;;;18.70;52.20;;;;;;5074771;28;19928;-61
2023/12/06 01:57:49;;;;;;;;;;;18.70;52.20;;;;;;5056091;28;19925;-62
2023/12/06 02:00:15;;;;;;;;;;;18.70;52.30;;;;;;5073824;28;20011;-62
2023/12/06 02:02:40;;;;;;;;;;;18.70;52.30;;;;;;5074759;28;19924;-62
2023/12/06 02:05:06;;;;;;;;;;;18.70;52.30;;;;;;5073880;28;19928;-62
2023/12/06 02:07:32;;;;;;;;;;;18.70;52.30;;;;;;5073455;28;19924;-62
2023/12/06 02:09:58;;;;;;;;;;;18.70;52.20;;;;;;5056181;28;19925;-62
2023/12/06 02:12:23;;;;;;;;;;;18.70;52.30;;;;;;5073886;28;19977;-62
2023/12/06 02:14:49;;;;;;;;;;;18.70;52.20;;;;;;5073753;28;20011;-62
2023/12/06 02:17:14;;;;;;;;;;;18.70;52.30;;;;;;5073782;28;19925;-62
2023/12/06 02:19:39;;;;;;;;;;;18.70;52.30;;;;;;5074193;28;20434;-62
2023/12/06 02:22:05;;;;;;;;;;;18.70;52.30;;;;;;5054852;28;20019;-62
2023/12/06 02:24:31;;;;;;;;;;;18.70;52.20;;;;;;5073931;28;20430;-62
2023/12/06 02:26:57;;;;;;;;;;;18.70;52.30;;;;;;5054885;28;19935;-62
2023/12/06 02:29:24;;;;;;;;;;;18.70;52.20;;;;;;5074106;28;20368;-62
2023/12/06 02:31:49;;;;;;;;;;;18.70;52.30;;;;;;5073813;28;19924;-62
2023/12/06 02:34:16;;;;;;;;;;;18.70;52.30;;;;;;5072742;28;20645;-62
2023/12/06 02:36:42;;;;;;;;;;;18.70;52.30;;;;;;5055849;28;19929;-62
2023/12/06 02:39:09;;;;;;;;;;;18.70;52.20;;;;;;5073752;28;20376;-62
2023/12/06 02:41:34;;;;;;;;;;;18.70;52.20;;;;;;5073191;28;19969;-62
2023/12/06 02:44:00;;;;;;;;;;;18.70;52.30;;;;;;5073838;28;20011;-62
2023/12/06 02:46:25;;;;;;;;;;;18.80;52.30;;;;;;5073402;28;20019;-62
2023/12/06 02:48:51;;;;;;;;;;;18.80;52.30;;;;;;5055293;28;19924;-62
2023/12/06 02:51:17;;;;;;;;;;;18.70;52.20;;;;;;5073649;28;20062;-62
2023/12/06 02:53:42;;;;;;;;;;;18.80;52.30;;;;;;5073549;28;19970;-62
2023/12/06 02:56:08;;;;;;;;;;;18.80;52.30;;;;;;5072556;28;19924;-62
2023/12/06 02:58:33;;;;;;;;;;;18.80;52.20;;;;;;5055397;28;19978;-62
2023/12/06 03:00:59;;;;;;;;;;;18.80;52.30;;;;;;5072997;28;19932;-62
2023/12/06 03:03:24;;;;;;;;;;;18.80;52.30;;;;;;5072327;28;20327;-62
2023/12/06 03:05:50;;;;;;;;;;;18.80;52.20;;;;;;5072796;28;20367;-62
2023/12/06 03:08:15;;;;;;;;;;;18.80;52.20;;;;;;5072942;28;20434;-62
2023/12/06 03:10:41;;;;;;;;;;;18.90;52.30;;;;;;5071947;28;19924;-62
2023/12/06 03:13:06;;;;;;;;;;;18.90;52.30;;;;;;5072811;28;20273;-62
2023/12/06 03:15:32;;;;;;;;;;;18.90;52.30;;;;;;5073513;28;20398;-62
2023/12/06 03:17:57;;;;;;;;;;;18.80;52.20;;;;;;5072357;28;19925;-62
2023/12/06 03:20:23;;;;;;;;;;;18.90;52.30;;;;;;5073334;28;19924;-62
2023/12/06 03:22:48;;;;;;;;;;;18.90;52.20;;;;;;5073102;28;19928;-62
2023/12/06 03:25:14;;;;;;;;;;;18.90;52.20;;;;;;5071958;28;19924;-62
2023/12/06 03:27:39;;;;;;;;;;;18.90;52.20;;;;;;5055006;28;20303;-62
2023/12/06 03:30:06;;;;;;;;;;;18.90;52.20;;;;;;5072916;28;19928;-62
2023/12/06 03:32:31;;;;;;;;;;;18.90;52.20;;;;;;5051657;28;20296;-62
2023/12/06 03:34:57;;;;;;;;;;;18.90;52.20;;;;;;5064591;28;19935;-62
2023/12/06 03:37:22;;;;;;;;;;;18.90;52.20;;;;;;5071603;28;20401;-62
2023/12/06 03:39:48;;;;;;;;;;;18.90;52.20;;;;;;5067131;28;19924;-62
2023/12/06 03:42:13;;;;;;;;;;;18.90;52.20;;;;;;5072680;28;20326;-62
2023/12/06 03:44:38;;;;;;;;;;;19.00;52.20;;;;;;5072150;28;19924;-62
2023/12/06 03:47:04;;;;;;;;;;;19.00;52.20;;;;;;5072390;28;19928;-62
2023/12/06 03:49:30;;;;;;;;;;;19.00;52.10;;;;;;5052825;28;19929;-62
2023/12/06 03:51:56;;;;;;;;;;;19.00;52.10;;;;;;5051841;28;19924;-62
2023/12/06 03:54:21;;;;;;;;;;;19.00;52.20;;;;;;5053063;28;20384;-62
2023/12/06 03:56:47;;;;;;;;;;;19.00;52.10;;;;;;5035243;28;19929;-62
2023/12/06 03:59:12;;;;;;;;;;;19.00;52.10;;;;;;5051822;28;19929;-62
2023/12/06 04:01:41;;;;;;;;;;;19.00;52.10;;;;;;5052724;28;19925;-62
2023/12/06 04:04:07;;;;;;;;;;;19.00;52.10;;;;;;5052250;28;19928;-62
2023/12/06 04:06:32;;;;;;;;;;;19.00;52.10;;;;;;5054085;28;19977;-62
2023/12/06 04:08:58;;;;;;;;;;;19.00;52.10;;;;;;5072476;28;20023;-62
2023/12/06 04:11:23;;;;;;;;;;;19.10;52.10;;;;;;5072806;28;19925;-62
2023/12/06 04:13:49;;;;;;;;;;;19.00;52.00;;;;;;5071823;28;19932;-62
2023/12/06 04:16:15;;;;;;;;;;;19.10;52.00;;;;;;5054784;28;19921;-62
2023/12/06 04:18:40;;;;;;;;;;;19.10;52.10;;;;;;5072521;28;20292;-62
2023/12/06 04:21:06;;;;;;;;;;;19.10;52.00;;;;;;5071833;28;19924;-62
2023/12/06 04:23:31;;;;;;;;;;;19.10;52.00;;;;;;5075524;28;19924;-63
2023/12/06 04:25:57;;;;;;;;;;;19.10;52.00;;;;;;5075908;28;19928;-62
2023/12/06 04:28:22;;;;;;;;;;;19.10;52.00;;;;;;5075459;28;20348;-63
2023/12/06 04:30:48;;;;;;;;;;;19.10;52.00;;;;;;5076214;28;19924;-62
2023/12/06 04:33:13;;;;;;;;;;;19.20;52.00;;;;;;5065620;28;20277;-62
2023/12/06 04:35:39;;;;;;;;;;;19.20;52.00;;;;;;5055536;28;19931;-63
2023/12/06 04:38:04;;;;;;;;;;;19.20;52.00;;;;;;5037993;28;20289;-62
2023/12/06 04:40:30;;;;;;;;;;;19.20;52.00;;;;;;5038192;28;19929;-62
2023/12/06 04:42:55;;;;;;;;;;;19.20;52.00;;;;;;5037422;28;19931;-63
2023/12/06 04:45:21;;;;;;;;;;;19.20;51.90;;;;;;5056286;28;19924;-62
2023/12/06 04:47:49;;;;;;;;;;;19.30;52.00;;;;;;5055339;28;20360;-62
2023/12/06 04:50:14;;;;;;;;;;;19.20;51.90;;;;;;5038071;28;19925;-62
2023/12/06 04:52:40;;;;;;;;;;;19.30;52.00;;;;;;5055602;28;19932;-63
2023/12/06 04:55:06;;;;;;;;;;;19.30;52.00;;;;;;5054957;28;19932;-62
2023/12/06 04:57:32;;;;;;;;;;;19.30;52.00;;;;;;5055715;28;20410;-62
2023/12/06 04:59:58;;;;;;;;;;;19.30;52.00;;;;;;5037508;28;19976;-62
2023/12/06 05:02:23;;;;;;;;;;;19.30;51.90;;;;;;5066802;28;19932;-62
2023/12/06 05:04:48;;;;;;;;;;;19.30;51.90;;;;;;5055854;28;19928;-62
2023/12/06 05:07:14;;;;;;;;;;;19.30;51.90;;;;;;5054642;28;19924;-62
2023/12/06 05:09:40;;;;;;;;;;;19.40;52.00;;;;;;5036971;28;20011;-62
2023/12/06 05:12:05;;;;;;;;;;;19.30;51.90;;;;;;5037133;28;19924;-62
2023/12/06 05:14:31;;;;;;;;;;;19.30;51.90;;;;;;5037460;28;19929;-62
2023/12/06 05:16:56;;;;;;;;;;;19.30;51.80;;;;;;5054312;28;20020;-62
2023/12/06 05:19:22;;;;;;;;;;;19.40;51.90;;;;;;5037440;28;19924;-62
2023/12/06 05:21:47;;;;;;;;;;;19.40;51.90;;;;;;5037403;28;20404;-62
2023/12/06 05:24:13;;;;;;;;;;;19.40;51.90;;;;;;5054062;28;19979;-62
2023/12/06 05:26:40;;;;;;;;;;;19.40;51.90;;;;;;5054754;28;20416;-62
2023/12/06 05:29:05;;;;;;;;;;;19.40;51.90;;;;;;5036893;28;19974;-62
2023/12/06 05:31:31;;;;;;;;;;;19.40;51.80;;;;;;5054544;28;19932;-62
2023/12/06 05:33:58;;;;;;;;;;;19.40;51.90;;;;;;5054192;28;19936;-62
2023/12/06 05:36:23;;;;;;;;;;;19.40;51.80;;;;;;5055066;28;19925;-62
2023/12/06 05:38:49;;;;;;;;;;;19.40;51.80;;;;;;5054534;28;19925;-62
2023/12/06 05:41:14;;;;;;;;;;;19.50;51.80;;;;;;5054728;28;19932;-62
2023/12/06 05:43:40;;;;;;;;;;;19.50;51.90;;;;;;5055138;28;20033;-62
2023/12/06 05:46:06;;;;;;;;;;;19.50;51.80;;;;;;5053332;28;19978;-62
2023/12/06 05:48:31;;;;;;;;;;;19.50;51.80;;;;;;5055031;28;19933;-62
2023/12/06 05:50:57;;;;;;;;;;;19.50;51.80;;;;;;5036055;28;19929;-62
2023/12/06 05:53:23;;;;;;;;;;;19.50;51.80;;;;;;5037158;28;19925;-62
2023/12/06 05:55:48;;;;;;;;;;;19.50;51.80;;;;;;5036875;28;20391;-62
2023/12/06 05:58:14;;;;;;;;;;;19.50;51.70;;;;;;5053591;28;20104;-62
2023/12/06 06:00:40;;;;;;;;;;;19.50;51.70;;;;;;5054752;28;20377;-62
2023/12/06 06:03:05;;;;;;;;;;;19.50;51.70;;;;;;5053994;28;20312;-62
2023/12/06 06:05:31;;;;;;;;;;;19.60;51.70;;;;;;5053878;28;19924;-62
2023/12/06 06:07:57;;;;;;;;;;;19.50;51.70;;;;;;5054030;28;19925;-62
2023/12/06 06:10:23;;;;;;;;;;;19.50;51.70;;;;;;5054621;28;20387;-62
2023/12/06 06:12:48;;;;;;;;;;;19.50;51.70;;;;;;5053338;28;19964;-62
2023/12/06 06:15:14;;;;;;;;;;;19.60;51.70;;;;;;5053945;28;19925;-62
2023/12/06 06:17:39;;;;;;;;;;;19.50;51.60;;;;;;5054147;28;19931;-62
2023/12/06 06:20:05;;;;;;;;;;;19.60;51.70;;;;;;5035561;28;19931;-62
2023/12/06 06:22:31;;;;;;;;;;;19.60;51.70;;;;;;5054187;28;20299;-62
2023/12/06 06:24:56;;;;;;;;;;;19.60;51.70;;;;;;5053701;28;19924;-62
2023/12/06 06:27:22;;;;;;;;;;;19.60;51.70;;;;;;5053365;28;19925;-62
2023/12/06 06:29:47;;;;;;;;;;;19.60;51.70;;;;;;5053818;28;20296;-62
2023/12/06 06:32:13;;;;;;;;;;;19.60;51.70;;;;;;5053724;28;19929;-62
2023/12/06 06:34:39;;;;;;;;;;;19.60;51.60;;;;;;5053314;28;20023;-61
2023/12/06 06:37:04;;;;;;;;;;;19.60;51.60;;;;;;5036136;28;19967;-62
2023/12/06 06:39:30;;;;;;;;;;;19.60;52.30;;;;;;5036243;28;20357;-62
2023/12/06 06:41:55;;;;;;;;;;;19.60;51.60;;;;;;5035106;28;19964;-62
2023/12/06 06:44:21;;;;;;;;;;;19.70;51.70;;;;;;5053131;28;20261;-62
2023/12/06 06:46:46;;;;;;;;;;;19.70;51.60;;;;;;5053377;28;19936;-61
2023/12/06 06:49:12;;;;;;;;;;;19.70;51.60;;;;;;5052861;28;20032;-62
2023/12/06 06:51:37;;;;;;;;;;;19.70;51.60;;;;;;5053633;28;19929;-62
2023/12/06 06:54:03;;;;;;;;;;;19.70;51.60;;;;;;5035738;28;19986;-62
2023/12/06 06:56:29;;;;;;;;;;;19.70;51.60;;;;;;5035213;28;19924;-62
2023/12/06 06:58:54;;;;;;;;;;;19.70;51.60;;;;;;5035043;28;19925;-62
2023/12/06 07:01:20;;;;;;;;;;;19.70;52.20;;;;;;5052502;28;19924;-62
2023/12/06 07:03:45;;;;;;;;;;;19.70;51.50;;;;;;5053332;28;19967;-62
2023/12/06 07:06:11;;;;;;;;;;;19.70;51.50;;;;;;5053177;28;19937;-62
2023/12/06 07:08:37;;;;;;;;;;;19.70;51.50;;;;;;5052866;28;20069;-61
2023/12/06 07:11:04;;;;;;;;;;;19.70;51.50;;;;;;5053013;28;19932;-61
2023/12/06 07:13:30;;;;;;;;;;;19.80;51.60;;;;;;5035736;28;19931;-61
2023/12/06 07:15:55;;;;;;;;;;;19.80;51.50;;;;;;5052325;28;20011;-61
2023/12/06 07:18:21;;;;;;;;;;;19.70;51.50;;;;;;5053719;28;19924;-60
2023/12/06 07:20:48;;;;;;;;;;;19.80;51.50;;;;;;5073234;28;20391;-61
2023/12/06 07:23:13;;;;;;;;;;;19.70;51.40;;;;;;5054035;28;19924;-61
2023/12/06 07:25:39;;;;;;;;;;;19.80;51.50;;;;;;5055807;28;19990;-61
2023/12/06 07:28:05;;;;;;;;;;;19.70;51.50;;;;;;5072770;28;20261;-61
2023/12/06 07:30:30;;;;;;;;;;;19.80;51.60;;;;;;5072626;28;19924;-61
2023/12/06 07:32:56;;;;;;;;;;;19.80;51.50;;;;;;5062890;28;20419;-60
2023/12/06 07:35:21;;;;;;;;;;;19.80;51.60;;;;;;5073286;28;19978;-60
2023/12/06 07:37:47;;;;;;;;;;;19.80;51.70;;;;;;5053840;28;19963;-60
2023/12/06 07:40:13;;;;;;;;;;;19.80;51.80;;;;;;5055101;28;20011;-61
2023/12/06 07:42:39;;;;;;;;;;;19.80;51.90;;;;;;5055316;28;19925;-61
2023/12/06 07:45:05;;;;;;;;;;;19.80;51.90;;;;;;5072022;28;19924;-61
2023/12/06 07:47:30;;;;;;;;;;;19.80;52.00;;;;;;5055255;28;19967;-61
2023/12/06 07:49:56;;;;;;;;;;;19.80;51.90;;;;;;5054867;28;19968;-61
2023/12/06 07:52:21;;;;;;;;;;;19.90;52.10;;;;;;5054197;28;20299;-61
2023/12/06 07:54:47;;;;;;;;;;;19.90;52.10;;;;;;5054870;28;20027;-60
2023/12/06 07:57:13;;;;;;;;;;;19.90;52.10;;;;;;5075414;28;20356;-61
2023/12/06 07:59:38;;;;;;;;;;;19.90;52.10;;;;;;5058078;28;19929;-60
2023/12/06 08:02:04;;;;;;;;;;;19.90;52.00;;;;;;5076677;28;19931;-60
2023/12/06 08:04:29;;;;;;;;;;;19.90;52.10;;;;;;5059172;28;19925;-61
2023/12/06 08:06:55;;;;;;;;;;;19.90;52.00;;;;;;5058180;28;19925;-61
2023/12/06 08:09:20;;;;;;;;;;;19.90;51.90;;;;;;5059043;28;20338;-61
2023/12/06 08:11:46;;;;;;;;;;;19.90;51.80;;;;;;5057704;28;19924;-62
2023/12/06 08:14:13;;;;;;;;;;;19.90;51.80;;;;;;5075947;28;19963;-60
2023/12/06 08:16:38;;;;;;;;;;;19.90;51.80;;;;;;5076466;28;20010;-60
2023/12/06 08:19:04;;;;;;;;;;;19.90;51.80;;;;;;5075420;28;20043;-60
2023/12/06 08:21:29;;;;;;;;;;;19.90;52.00;;;;;;5076588;28;19928;-60
2023/12/06 08:23:55;;;;;;;;;;;19.90;52.10;;;;;;5076005;28;19995;-60
2023/12/06 08:26:20;;;;;;;;;;;19.90;52.10;;;;;;5057652;28;19993;-60
2023/12/06 08:28:46;;;;;;;;;;;19.90;52.10;;;;;;5058467;28;20020;-60
2023/12/06 08:31:12;;;;;;;;;;;19.90;52.20;;;;;;5057986;28;19928;-60
2023/12/06 08:33:37;;;;;;;;;;;19.90;52.20;;;;;;5075792;28;19984;-61
2023/12/06 08:36:03;;;;;;;;;;;19.90;52.10;;;;;;5072714;28;19970;-60
2023/12/06 08:38:29;;;;;;;;;;;19.90;52.10;;;;;;5047255;28;19975;-62
2023/12/06 08:40:54;;;;;;;;;;;19.90;52.10;;;;;;5056995;28;19924;-62
2023/12/06 08:43:20;;;;;;;;;;;19.90;52.10;;;;;;5075882;28;19932;-61
2023/12/06 08:45:45;;;;;;;;;;;19.90;52.10;;;;;;5076245;28;19925;-61
2023/12/06 08:48:11;;;;;;;;;;;19.90;52.10;;;;;;5075246;28;20300;-61
2023/12/06 08:50:36;;;;;;;;;;;19.90;52.10;;;;;;5075733;28;20269;-61
2023/12/06 08:53:02;;;;;;;;;;;19.90;52.10;;;;;;5075817;28;19924;-61
2023/12/06 08:55:28;;;;;;;;;;;19.90;52.10;;;;;;5075159;28;20372;-61
2023/12/06 08:57:53;;;;;;;;;;;19.90;52.10;;;;;;5075479;28;20363;-62
2023/12/06 09:00:19;;;;;;;;;;;19.90;52.10;;;;;;5058070;28;20058;-62
2023/12/06 09:02:44;;;;;;;;;;;19.90;52.10;;;;;;5075180;28;19924;-61
2023/12/06 09:05:11;;;;;;;;;;;19.80;52.00;;;;;;5057741;28;20331;-61
2023/12/06 09:07:37;;;;;;;;;;;19.80;51.90;;;;;;5074828;28;19925;-61
2023/12/06 09:10:03;;;;;;;;;;;19.80;52.00;;;;;;5056957;28;19925;-61
2023/12/06 09:12:29;;;;;;;;;;;19.80;51.90;;;;;;5075300;28;19928;-61
2023/12/06 09:14:54;;;;;;;;;;;19.80;52.10;;;;;;5074591;28;19978;-62
2023/12/06 09:17:20;;;;;;;;;;;19.80;52.10;;;;;;5075754;28;19928;-61
2023/12/06 09:19:45;;;;;;;;;;;19.80;52.40;;;;;;5057710;28;20328;-61
2023/12/06 09:22:11;;;;;;;;;;;19.80;52.10;;;;;;5074518;28;19928;-61
2023/12/06 09:24:36;;;;;;;;;;;19.80;52.10;;;;;;5051244;28;20411;-61
2023/12/06 09:27:02;;;;;;;;;;;19.80;52.10;;;;;;5074794;28;20276;-61
2023/12/06 09:29:27;;;;;;;;;;;19.80;52.00;;;;;;5056664;28;19928;-61
2023/12/06 09:31:53;;;;;;;;;;;19.80;52.10;;;;;;5056998;28;20341;-61
2023/12/06 09:34:18;;;;;;;;;;;19.80;52.00;;;;;;5075051;28;19931;-61
2023/12/06 09:36:44;;;;;;;;;;;19.90;52.10;;;;;;5051054;28;19925;-61
2023/12/06 09:39:09;;;;;;;;;;;19.80;52.00;;;;;;5054924;28;19924;-61
2023/12/06 09:41:35;;;;;;;;;;;19.80;52.00;;;;;;5064362;28;20326;-61
2023/12/06 09:44:00;;;;;;;;;;;19.80;51.90;;;;;;5056095;28;20035;-61
2023/12/06 09:46:26;;;;;;;;;;;19.80;51.90;;;;;;5057137;28;19924;-61
2023/12/06 09:48:55;;;;;;;;;;;19.80;51.90;;;;;;5056653;28;19924;-61
2023/12/06 09:51:20;;;;;;;;;;;19.80;51.90;;;;;;5073813;28;20296;-61
2023/12/06 09:53:46;;;;;;;;;;;19.80;51.90;;;;;;5074846;28;19931;-61
2023/12/06 09:56:12;;;;;;;;;;;19.90;51.90;;;;;;5056229;28;20430;-61
2023/12/06 09:58:37;;;;;;;;;;;19.80;51.90;;;;;;5074043;28;19932;-61
2023/12/06 10:01:03;;;;;;;;;;;19.80;51.90;;;;;;5074386;28;19924;-61
2023/12/06 10:03:28;;;;;;;;;;;19.80;51.90;;;;;;5057016;28;20009;-61
2023/12/06 10:05:57;;;;;;;;;;;19.80;51.80;;;;;;5069340;28;19925;-61
2023/12/06 10:08:22;;;;;;;;;;;19.80;51.80;;;;;;5036605;28;19959;-61
2023/12/06 10:10:48;;;;;;;;;;;19.80;51.80;;;;;;5054352;28;19968;-61
2023/12/06 10:13:13;;;;;;;;;;;19.80;51.80;;;;;;5035378;28;20026;-61
2023/12/06 10:15:39;;;;;;;;;;;19.80;51.70;;;;;;5036815;28;19932;-61
2023/12/06 10:18:04;;;;;;;;;;;19.80;51.70;;;;;;5036438;28;19924;-61
2023/12/06 10:20:30;;;;;;;;;;;19.80;51.70;;;;;;5018943;28;19964;-61
2023/12/06 10:22:56;;;;;;;;;;;19.80;51.70;;;;;;5036197;28;19979;-62
2023/12/06 10:25:21;;;;;;;;;;;19.80;51.70;;;;;;5035609;28;19924;-61
2023/12/06 10:27:46;;;;;;;;;;;19.80;51.60;;;;;;5040830;28;19925;-61
2023/12/06 10:30:14;;;;;;;;;;;19.80;51.60;;;;;;5073392;28;19925;-61
2023/12/06 10:32:39;;;;;;;;;;;19.80;51.70;;;;;;5055354;28;19925;-61
2023/12/06 10:35:05;;;;;;;;;;;19.80;51.60;;;;;;5039352;28;19930;-62
2023/12/06 10:37:30;;;;;;;;;;;19.80;51.60;;;;;;5037025;28;20372;-61
2023/12/06 10:40:11;;;;;;;;;;;19.80;51.60;;;;;;5018398;28;20335;-61
2023/12/06 10:42:38;;;;;;;;;;;19.80;51.70;;;;;;5036370;28;19971;-61
2023/12/06 10:45:03;;;;;;;;;;;19.80;51.60;;;;;;5053477;28;19925;-61
2023/12/06 10:47:30;;;;;;;;;;;19.80;51.60;;;;;;5035787;28;20016;-61
2023/12/06 10:49:56;;;;;;;;;;;19.80;51.60;;;;;;5053136;28;19925;-61
2023/12/06 10:52:21;;;;;;;;;;;19.80;51.60;;;;;;5053291;28;19925;-61
2023/12/06 10:54:47;;;;;;;;;;;19.80;51.60;;;;;;5034976;28;20276;-61
2023/12/06 10:57:13;;;;;;;;;;;19.70;51.60;;;;;;5052892;28;20020;-62
2023/12/06 10:59:38;;;;;;;;;;;19.70;51.20;;;;;;5035471;28;20296;-63
2023/12/06 11:02:04;;;;;;;;;;;19.70;51.10;;;;;;5017508;28;19925;-62
2023/12/06 11:04:33;;;;;;;;;;;19.80;51.20;;;;;;5047498;28;20020;-61
2023/12/06 11:07:05;;;;;;;;;;;19.70;51.30;;;;;;5043480;28;19928;-61
2023/12/06 11:09:34;;;;;;;;;;;19.70;51.50;;;;;;5018124;28;19924;-61
2023/12/06 11:12:25;;;;;;;;;;;19.70;51.70;;;;;;5031677;28;19924;-60
2023/12/06 11:15:10;;;;;;;;;;;19.70;51.80;;;;;;5021445;28;19924;-60
2023/12/06 11:18:14;;;;;;;;;;;19.70;52.00;;;;;;5048463;28;19964;-59
2023/12/06 11:20:39;;;;;;;;;;;19.70;52.00;;;;;;4972245;28;19969;-59
2023/12/06 11:23:06;;;;;;;;;;;19.70;52.10;;;;;;4955143;28;19926;-59
2023/12/06 11:25:31;;;;;;;;;;;19.80;52.20;;;;;;4992888;28;20446;-59
2023/12/06 11:27:57;;;;;;;;;;;19.80;52.20;;;;;;5030573;28;19925;-59
2023/12/06 11:30:22;;;;;;;;;;;19.80;52.20;;;;;;5052108;28;19925;-59
2023/12/06 11:32:52;;;;;;;;;;;19.80;52.30;;;;;;5049041;28;19954;-59
2023/12/06 11:35:17;;;;;;;;;;;19.80;52.20;;;;;;5054705;28;19924;-60
2023/12/06 11:37:53;;;;;;;;;;;19.80;52.10;;;;;;5054244;28;19932;-61
2023/12/06 11:40:21;;;;;;;;;;;19.80;52.00;;;;;;5054266;28;19928;-60
2023/12/06 11:42:56;;;;;;;;;;;19.80;52.00;;;;;;5053855;28;19951;-61
2023/12/06 11:45:25;;;;;;;;;;;19.80;52.00;;;;;;5053539;28;20403;-60
2023/12/06 11:47:52;;;;;;;;;;;19.80;52.00;;;;;;5054915;28;19970;-60
2023/12/06 11:50:18;;;;;;;;;;;19.80;51.90;;;;;;5037786;28;19924;-60
2023/12/06 11:52:50;;;;;;;;;;;19.80;52.00;;;;;;5038318;28;19925;-60
2023/12/06 11:55:19;;;;;;;;;;;19.80;52.00;;;;;;5054607;28;19983;-60
2023/12/06 11:58:06;;;;;;;;;;;19.80;52.00;;;;;;5054182;28;19920;-60
2023/12/06 12:00:32;;;;;;;;;;;19.80;51.90;;;;;;5054652;28;19972;-59
2023/12/06 12:02:58;;;;;;;;;;;19.70;51.90;;;;;;5034157;28;19960;-59
2023/12/06 12:05:24;;;;;;;;;;;19.80;52.20;;;;;;5035577;28;20335;-59
2023/12/06 12:07:49;;;;;;;;;;;19.80;52.30;;;;;;5043322;28;20364;-60
2023/12/06 12:10:16;;;;;;;;;;;19.80;52.40;;;;;;5044548;28;20379;-60
2023/12/06 12:12:41;;;;;;;;;;;19.80;52.40;;;;;;5044268;28;19924;-60
2023/12/06 12:15:07;;;;;;;;;;;19.80;52.50;;;;;;5060557;28;19925;-60
2023/12/06 12:17:34;;;;;;;;;;;19.80;52.50;;;;;;5062858;28;19978;-60
2023/12/06 12:19:59;;;;;;;;;;;19.80;52.60;;;;;;5043573;28;20007;-60
2023/12/06 12:22:25;;;;;;;;;;;19.80;52.60;;;;;;5061092;28;20082;-60
2023/12/06 12:24:51;;;;;;;;;;;19.80;52.60;;;;;;5062198;28;19932;-60
2023/12/06 12:27:18;;;;;;;;;;;19.80;52.70;;;;;;5040995;28;19928;-60
2023/12/06 12:29:44;;;;;;;;;;;19.80;52.70;;;;;;5043300;28;19924;-61
2023/12/06 12:32:10;;;;;;;;;;;19.80;52.70;;;;;;5041302;28;20394;-60
2023/12/06 12:34:35;;;;;;;;;;;19.80;52.70;;;;;;5061793;28;19932;-60
2023/12/06 12:37:01;;;;;;;;;;;19.80;52.70;;;;;;5043457;28;19924;-60
2023/12/06 12:39:26;;;;;;;;;;;19.80;52.80;;;;;;5062314;28;19931;-61
2023/12/06 12:41:52;;;;;;;;;;;19.90;52.80;;;;;;5043300;28;19995;-60
2023/12/06 12:44:17;;;;;;;;;;;19.90;52.90;;;;;;5064608;28;19931;-60
2023/12/06 12:46:43;;;;;;;;;;;19.90;52.90;;;;;;5047688;28;20392;-60
2023/12/06 12:49:08;;;;;;;;;;;19.90;52.90;;;;;;5046429;28;20019;-61
2023/12/06 12:51:34;;;;;;;;;;;19.90;52.90;;;;;;5066172;28;20360;-60
2023/12/06 12:54:00;;;;;;;;;;;19.90;52.90;;;;;;5046975;28;19925;-60
2023/12/06 12:56:25;;;;;;;;;;;19.90;52.90;;;;;;5064109;28;20384;-60
2023/12/06 12:58:53;;;;;;;;;;;19.90;53.00;;;;;;5066435;28;19965;-60
2023/12/06 13:01:19;;;;;;;;;;;19.90;53.00;;;;;;5063117;28;19936;-59
2023/12/06 13:03:44;;;;;;;;;;;19.90;53.00;;;;;;5060154;28;19925;-59
2023/12/06 13:06:10;;;;;;;;;;;19.90;53.20;;;;;;5044530;28;20081;-59
2023/12/06 13:08:35;;;;;;;;;;;19.90;53.20;;;;;;5062498;28;19932;-60
2023/12/06 13:11:01;;;;;;;;;;;20.00;53.20;;;;;;5060526;28;20423;-60
2023/12/06 13:13:27;;;;;;;;;;;19.90;53.20;;;;;;5063622;28;19925;-59
2023/12/06 13:15:53;;;;;;;;;;;20.00;53.40;;;;;;5044674;28;20359;-59
2023/12/06 13:18:19;;;;;;;;;;;20.00;53.40;;;;;;5047638;28;19935;-60
2023/12/06 13:20:45;;;;;;;;;;;20.00;53.30;;;;;;5065195;28;19924;-60
2023/12/06 13:23:10;;;;;;;;;;;20.00;53.30;;;;;;5060305;28;19978;-60
2023/12/06 13:25:36;;;;;;;;;;;20.00;53.40;;;;;;5046023;28;19956;-59
2023/12/06 13:28:01;;;;;;;;;;;20.00;53.50;;;;;;5045076;28;20348;-59
2023/12/06 13:30:27;;;;;;;;;;;20.00;53.50;;;;;;5041438;28;19928;-60
2023/12/06 13:32:52;;;;;;;;;;;20.00;53.50;;;;;;5042641;28;19931;-60
2023/12/06 13:35:18;;;;;;;;;;;20.00;53.50;;;;;;5036585;28;19932;-61
2023/12/06 13:37:43;;;;;;;;;;;20.00;53.30;;;;;;5045620;28;19921;-60
2023/12/06 13:40:09;;;;;;;;;;;19.90;53.30;;;;;;5074616;28;20330;-60
2023/12/06 13:42:34;;;;;;;;;;;20.00;53.30;;;;;;5039328;28;19967;-61
2023/12/06 13:45:00;;;;;;;;;;;20.00;53.40;;;;;;5056643;28;19924;-60
2023/12/06 13:47:25;;;;;;;;;;;20.00;53.20;;;;;;5056905;28;20279;-60
2023/12/06 13:49:51;;;;;;;;;;;20.00;53.20;;;;;;5056002;28;19920;-60
2023/12/06 13:52:16;;;;;;;;;;;19.90;53.10;;;;;;5056506;28;20380;-60
2023/12/06 13:54:43;;;;;;;;;;;19.90;53.20;;;;;;5056362;28;19925;-61
2023/12/06 13:57:09;;;;;;;;;;;20.00;53.30;;;;;;5055913;28;20392;-60
2023/12/06 13:59:35;;;;;;;;;;;19.90;53.20;;;;;;5056728;28;19932;-60
2023/12/06 14:02:00;;;;;;;;;;;20.00;53.30;;;;;;5074242;28;19925;-60
2023/12/06 14:04:26;;;;;;;;;;;19.90;53.30;;;;;;5055953;28;20011;-61
2023/12/06 14:06:52;;;;;;;;;;;19.90;54.10;;;;;;5056082;28;20403;-61
2023/12/06 14:09:18;;;;;;;;;;;19.90;53.20;;;;;;5056253;28;19971;-59